sensor_id;sensor_type;location;lat;lon;timestamp;pressure;altitude;pressure_sealevel;temperature
13570;BMP180;6856;51.460;7.158;2023-06-19T00:00:42;99831.00;;;29.50
13570;BMP180;6856;51.460;7.158;2023-06-19T00:03:18;99828.00;;;29.50
13570;BMP180;6856;51.460;7.158;2023-06-19T00:05:52;99798.00;;;29.50
13570;BMP180;6856;51.460;7.158;2023-06-19T00:08:27;99830.00;;;29.50
13570;BMP180;6856;51.460;7.158;2023-06-19T00:11:03;99805.00;;;29.50
13570;BMP180;6856;51.460;7.158;2023-06-19T00:13:38;99801.00;;;29.50
13570;BMP180;6856;51.460;7.158;2023-06-19T00:16:13;99829.00;;;29.40
13570;BMP180;6856;51.460;7.158;2023-06-19T00:18:49;99826.00;;;29.50
13570;BMP180;6856;51.460;7.158;2023-06-19T00:21:27;99828.00;;;29.50
13570;BMP180;6856;51.460;7.158;2023-06-19T00:24:02;99838.00;;;29.40
13570;BMP180;6856;51.460;7.158;2023-06-19T00:26:38;99823.00;;;29.40
13570;BMP180;6856;51.460;7.158;2023-06-19T00:29:12;99839.00;;;29.40
13570;BMP180;6856;51.460;7.158;2023-06-19T00:31:46;99825.00;;;29.40
13570;BMP180;6856;51.460;7.158;2023-06-19T00:34:20;99837.00;;;29.30
13570;BMP180;6856;51.460;7.158;2023-06-19T00:36:57;99832.00;;;29.40
13570;BMP180;6856;51.460;7.158;2023-06-19T00:39:31;99850.00;;;29.40
13570;BMP180;6856;51.460;7.158;2023-06-19T00:42:09;99842.00;;;29.30
13570;BMP180;6856;51.460;7.158;2023-06-19T00:44:44;99824.00;;;29.30
13570;BMP180;6856;51.460;7.158;2023-06-19T00:47:18;99849.00;;;29.30
13570;BMP180;6856;51.460;7.158;2023-06-19T00:49:53;99845.00;;;29.20
13570;BMP180;6856;51.460;7.158;2023-06-19T00:52:27;99841.00;;;29.20
13570;BMP180;6856;51.460;7.158;2023-06-19T00:55:04;99840.00;;;29.20
13570;BMP180;6856;51.460;7.158;2023-06-19T00:57:40;99848.00;;;29.10
13570;BMP180;6856;51.460;7.158;2023-06-19T01:00:15;99848.00;;;29.10
13570;BMP180;6856;51.460;7.158;2023-06-19T01:02:50;99850.00;;;29.10
13570;BMP180;6856;51.460;7.158;2023-06-19T01:05:25;99828.00;;;29.10
13570;BMP180;6856;51.460;7.158;2023-06-19T01:08:08;99809.00;;;29.00
13570;BMP180;6856;51.460;7.158;2023-06-19T01:10:49;99841.00;;;29.00
13570;BMP180;6856;51.460;7.158;2023-06-19T01:13:37;99840.00;;;29.00
13570;BMP180;6856;51.460;7.158;2023-06-19T01:16:18;99851.00;;;29.00
13570;BMP180;6856;51.460;7.158;2023-06-19T01:18:53;99858.00;;;29.00
13570;BMP180;6856;51.460;7.158;2023-06-19T01:21:28;99811.00;;;28.90
13570;BMP180;6856;51.460;7.158;2023-06-19T01:24:04;99845.00;;;28.90
13570;BMP180;6856;51.460;7.158;2023-06-19T01:26:40;99849.00;;;28.90
13570;BMP180;6856;51.460;7.158;2023-06-19T01:29:19;99819.00;;;28.90
13570;BMP180;6856;51.460;7.158;2023-06-19T01:31:59;99835.00;;;28.90
13570;BMP180;6856;51.460;7.158;2023-06-19T01:34:37;99838.00;;;28.80
13570;BMP180;6856;51.460;7.158;2023-06-19T01:37:12;99806.00;;;28.80
13570;BMP180;6856;51.460;7.158;2023-06-19T01:39:51;99836.00;;;28.80
13570;BMP180;6856;51.460;7.158;2023-06-19T01:42:27;99833.00;;;28.80
13570;BMP180;6856;51.460;7.158;2023-06-19T01:45:04;99826.00;;;28.80
13570;BMP180;6856;51.460;7.158;2023-06-19T01:47:40;99831.00;;;28.80
13570;BMP180;6856;51.460;7.158;2023-06-19T01:50:15;99817.00;;;28.60
13570;BMP180;6856;51.460;7.158;2023-06-19T01:52:48;99828.00;;;28.70
13570;BMP180;6856;51.460;7.158;2023-06-19T01:55:24;99824.00;;;28.40
13570;BMP180;6856;51.460;7.158;2023-06-19T01:57:59;99781.00;;;28.70
13570;BMP180;6856;51.460;7.158;2023-06-19T02:00:34;99825.00;;;28.60
13570;BMP180;6856;51.460;7.158;2023-06-19T02:03:10;99832.00;;;28.60
13570;BMP180;6856;51.460;7.158;2023-06-19T02:05:46;99820.00;;;28.60
13570;BMP180;6856;51.460;7.158;2023-06-19T02:08:21;99832.00;;;28.60
13570;BMP180;6856;51.460;7.158;2023-06-19T02:10:56;99826.00;;;28.50
13570;BMP180;6856;51.460;7.158;2023-06-19T02:13:30;99829.00;;;28.50
13570;BMP180;6856;51.460;7.158;2023-06-19T02:16:05;99820.00;;;28.50
13570;BMP180;6856;51.460;7.158;2023-06-19T02:18:40;99834.00;;;28.50
13570;BMP180;6856;51.460;7.158;2023-06-19T02:21:14;99836.00;;;28.40
13570;BMP180;6856;51.460;7.158;2023-06-19T02:23:50;99817.00;;;28.40
13570;BMP180;6856;51.460;7.158;2023-06-19T02:26:26;99835.00;;;28.40
13570;BMP180;6856;51.460;7.158;2023-06-19T02:29:04;99851.00;;;28.30
13570;BMP180;6856;51.460;7.158;2023-06-19T02:31:42;99848.00;;;28.30
13570;BMP180;6856;51.460;7.158;2023-06-19T02:34:17;99856.00;;;28.30
13570;BMP180;6856;51.460;7.158;2023-06-19T02:36:51;99864.00;;;28.10
13570;BMP180;6856;51.460;7.158;2023-06-19T02:39:25;99858.00;;;28.20
13570;BMP180;6856;51.460;7.158;2023-06-19T02:42:04;99860.00;;;28.10
13570;BMP180;6856;51.460;7.158;2023-06-19T02:44:40;99874.00;;;28.10
13570;BMP180;6856;51.460;7.158;2023-06-19T02:47:14;99875.00;;;28.10
13570;BMP180;6856;51.460;7.158;2023-06-19T02:49:50;99873.00;;;28.00
13570;BMP180;6856;51.460;7.158;2023-06-19T02:52:24;99843.00;;;28.00
13570;BMP180;6856;51.460;7.158;2023-06-19T02:54:59;99893.00;;;27.90
13570;BMP180;6856;51.460;7.158;2023-06-19T02:57:37;99892.00;;;27.90
13570;BMP180;6856;51.460;7.158;2023-06-19T03:00:13;99888.00;;;27.90
13570;BMP180;6856;51.460;7.158;2023-06-19T03:02:48;99888.00;;;27.80
13570;BMP180;6856;51.460;7.158;2023-06-19T03:05:23;99903.00;;;27.80
13570;BMP180;6856;51.460;7.158;2023-06-19T03:07:59;99923.00;;;27.80
13570;BMP180;6856;51.460;7.158;2023-06-19T03:10:35;99892.00;;;27.70
13570;BMP180;6856;51.460;7.158;2023-06-19T03:13:12;99924.00;;;27.70
13570;BMP180;6856;51.460;7.158;2023-06-19T03:15:46;99929.00;;;27.60
13570;BMP180;6856;51.460;7.158;2023-06-19T03:18:21;99923.00;;;27.60
13570;BMP180;6856;51.460;7.158;2023-06-19T03:20:55;99930.00;;;27.50
13570;BMP180;6856;51.460;7.158;2023-06-19T03:23:31;99934.00;;;27.50
13570;BMP180;6856;51.460;7.158;2023-06-19T03:26:05;99939.00;;;27.50
13570;BMP180;6856;51.460;7.158;2023-06-19T03:28:43;99935.00;;;27.40
13570;BMP180;6856;51.460;7.158;2023-06-19T03:31:19;99941.00;;;27.40
13570;BMP180;6856;51.460;7.158;2023-06-19T03:33:55;99946.00;;;27.40
13570;BMP180;6856;51.460;7.158;2023-06-19T03:36:29;99943.00;;;27.30
13570;BMP180;6856;51.460;7.158;2023-06-19T03:39:04;99961.00;;;27.30
13570;BMP180;6856;51.460;7.158;2023-06-19T03:41:39;99959.00;;;27.30
13570;BMP180;6856;51.460;7.158;2023-06-19T03:44:18;99973.00;;;27.30
13570;BMP180;6856;51.460;7.158;2023-06-19T03:46:51;99959.00;;;27.30
13570;BMP180;6856;51.460;7.158;2023-06-19T03:49:26;99970.00;;;27.30
13570;BMP180;6856;51.460;7.158;2023-06-19T03:52:02;99940.00;;;27.30
13570;BMP180;6856;51.460;7.158;2023-06-19T03:54:38;99978.00;;;27.20
13570;BMP180;6856;51.460;7.158;2023-06-19T03:57:12;99978.00;;;27.20
13570;BMP180;6856;51.460;7.158;2023-06-19T03:59:48;99989.00;;;27.20
13570;BMP180;6856;51.460;7.158;2023-06-19T04:02:23;99960.00;;;27.10
13570;BMP180;6856;51.460;7.158;2023-06-19T04:04:58;99980.00;;;27.10
13570;BMP180;6856;51.460;7.158;2023-06-19T04:07:33;99982.00;;;27.00
13570;BMP180;6856;51.460;7.158;2023-06-19T04:10:10;99986.00;;;27.00
13570;BMP180;6856;51.460;7.158;2023-06-19T04:12:45;99993.00;;;26.90
13570;BMP180;6856;51.460;7.158;2023-06-19T04:15:22;99987.00;;;26.90
13570;BMP180;6856;51.460;7.158;2023-06-19T04:17:56;99995.00;;;26.90
13570;BMP180;6856;51.460;7.158;2023-06-19T04:20:33;99984.00;;;26.80
13570;BMP180;6856;51.460;7.158;2023-06-19T04:23:07;100000.00;;;26.80
13570;BMP180;6856;51.460;7.158;2023-06-19T04:25:42;100010.00;;;26.80
13570;BMP180;6856;51.460;7.158;2023-06-19T04:28:16;100007.00;;;26.80
13570;BMP180;6856;51.460;7.158;2023-06-19T04:30:52;100011.00;;;26.80
13570;BMP180;6856;51.460;7.158;2023-06-19T04:33:33;100010.00;;;26.70
13570;BMP180;6856;51.460;7.158;2023-06-19T04:36:09;99983.00;;;26.70
13570;BMP180;6856;51.460;7.158;2023-06-19T04:38:45;100030.00;;;26.70
13570;BMP180;6856;51.460;7.158;2023-06-19T04:41:24;100034.00;;;26.70
13570;BMP180;6856;51.460;7.158;2023-06-19T04:43:58;100041.00;;;26.70
13570;BMP180;6856;51.460;7.158;2023-06-19T04:46:38;100047.00;;;26.70
13570;BMP180;6856;51.460;7.158;2023-06-19T04:49:14;100039.00;;;26.70
13570;BMP180;6856;51.460;7.158;2023-06-19T04:51:54;100045.00;;;26.70
13570;BMP180;6856;51.460;7.158;2023-06-19T04:54:29;100041.00;;;26.60
13570;BMP180;6856;51.460;7.158;2023-06-19T04:57:05;100036.00;;;26.60
13570;BMP180;6856;51.460;7.158;2023-06-19T04:59:43;100020.00;;;26.60
13570;BMP180;6856;51.460;7.158;2023-06-19T05:02:19;100039.00;;;26.50
13570;BMP180;6856;51.460;7.158;2023-06-19T05:04:53;100059.00;;;26.50
13570;BMP180;6856;51.460;7.158;2023-06-19T05:07:29;100058.00;;;26.50
13570;BMP180;6856;51.460;7.158;2023-06-19T05:10:04;100058.00;;;26.50
13570;BMP180;6856;51.460;7.158;2023-06-19T05:12:39;100056.00;;;26.50
13570;BMP180;6856;51.460;7.158;2023-06-19T05:15:13;100066.00;;;26.40
13570;BMP180;6856;51.460;7.158;2023-06-19T05:17:49;100068.00;;;26.40
13570;BMP180;6856;51.460;7.158;2023-06-19T05:20:23;100053.00;;;26.40
13570;BMP180;6856;51.460;7.158;2023-06-19T05:22:58;100068.00;;;26.30
13570;BMP180;6856;51.460;7.158;2023-06-19T05:25:41;100070.00;;;26.30
13570;BMP180;6856;51.460;7.158;2023-06-19T05:28:16;100068.00;;;26.30
13570;BMP180;6856;51.460;7.158;2023-06-19T05:30:50;100078.00;;;26.30
13570;BMP180;6856;51.460;7.158;2023-06-19T05:33:25;100083.00;;;26.30
13570;BMP180;6856;51.460;7.158;2023-06-19T05:36:00;100068.00;;;26.40
13570;BMP180;6856;51.460;7.158;2023-06-19T05:38:34;100084.00;;;26.40
13570;BMP180;6856;51.460;7.158;2023-06-19T05:41:08;100073.00;;;26.40
13570;BMP180;6856;51.460;7.158;2023-06-19T05:43:45;100081.00;;;26.30
13570;BMP180;6856;51.460;7.158;2023-06-19T05:46:22;100081.00;;;26.30
13570;BMP180;6856;51.460;7.158;2023-06-19T05:48:58;100078.00;;;26.30
13570;BMP180;6856;51.460;7.158;2023-06-19T05:51:32;100085.00;;;26.30
13570;BMP180;6856;51.460;7.158;2023-06-19T05:54:08;100099.00;;;26.30
13570;BMP180;6856;51.460;7.158;2023-06-19T05:56:43;100100.00;;;26.30
13570;BMP180;6856;51.460;7.158;2023-06-19T05:59:16;100097.00;;;26.30
13570;BMP180;6856;51.460;7.158;2023-06-19T06:01:52;100100.00;;;26.30
13570;BMP180;6856;51.460;7.158;2023-06-19T06:04:29;100099.00;;;26.30
13570;BMP180;6856;51.460;7.158;2023-06-19T06:07:04;100106.00;;;26.20
13570;BMP180;6856;51.460;7.158;2023-06-19T06:09:39;100119.00;;;26.20
13570;BMP180;6856;51.460;7.158;2023-06-19T06:12:13;100097.00;;;26.20
13570;BMP180;6856;51.460;7.158;2023-06-19T06:14:48;100120.00;;;26.20
13570;BMP180;6856;51.460;7.158;2023-06-19T06:17:23;100101.00;;;26.10
13570;BMP180;6856;51.460;7.158;2023-06-19T06:20:00;100127.00;;;26.10
13570;BMP180;6856;51.460;7.158;2023-06-19T06:22:34;100135.00;;;26.10
13570;BMP180;6856;51.460;7.158;2023-06-19T06:25:09;100126.00;;;26.10
13570;BMP180;6856;51.460;7.158;2023-06-19T06:27:47;100124.00;;;26.10
13570;BMP180;6856;51.460;7.158;2023-06-19T06:30:22;100127.00;;;26.10
13570;BMP180;6856;51.460;7.158;2023-06-19T06:32:57;100141.00;;;26.10
13570;BMP180;6856;51.460;7.158;2023-06-19T06:35:33;100133.00;;;26.10
13570;BMP180;6856;51.460;7.158;2023-06-19T06:38:08;100135.00;;;26.20
13570;BMP180;6856;51.460;7.158;2023-06-19T06:40:42;100132.00;;;26.20
13570;BMP180;6856;51.460;7.158;2023-06-19T06:43:18;100127.00;;;26.20
13570;BMP180;6856;51.460;7.158;2023-06-19T06:45:53;100132.00;;;26.20
13570;BMP180;6856;51.460;7.158;2023-06-19T06:48:29;100128.00;;;26.30
13570;BMP180;6856;51.460;7.158;2023-06-19T06:51:05;100132.00;;;26.40
13570;BMP180;6856;51.460;7.158;2023-06-19T06:53:39;100127.00;;;26.40
13570;BMP180;6856;51.460;7.158;2023-06-19T06:56:13;100075.00;;;26.50
13570;BMP180;6856;51.460;7.158;2023-06-19T06:58:46;100127.00;;;26.50
13570;BMP180;6856;51.460;7.158;2023-06-19T07:01:21;100132.00;;;26.50
13570;BMP180;6856;51.460;7.158;2023-06-19T07:03:55;100145.00;;;26.50
13570;BMP180;6856;51.460;7.158;2023-06-19T07:06:31;100138.00;;;26.50
13570;BMP180;6856;51.460;7.158;2023-06-19T07:09:09;100131.00;;;26.50
13570;BMP180;6856;51.460;7.158;2023-06-19T07:11:45;100148.00;;;26.50
13570;BMP180;6856;51.460;7.158;2023-06-19T07:14:19;100145.00;;;26.50
13570;BMP180;6856;51.460;7.158;2023-06-19T07:16:53;100153.00;;;26.50
13570;BMP180;6856;51.460;7.158;2023-06-19T07:19:28;100155.00;;;26.50
13570;BMP180;6856;51.460;7.158;2023-06-19T07:22:06;100162.00;;;26.40
13570;BMP180;6856;51.460;7.158;2023-06-19T07:24:42;100161.00;;;26.30
13570;BMP180;6856;51.460;7.158;2023-06-19T07:27:16;100161.00;;;26.30
13570;BMP180;6856;51.460;7.158;2023-06-19T07:29:50;100156.00;;;26.30
13570;BMP180;6856;51.460;7.158;2023-06-19T07:32:26;100173.00;;;26.30
13570;BMP180;6856;51.460;7.158;2023-06-19T07:35:01;100177.00;;;26.30
13570;BMP180;6856;51.460;7.158;2023-06-19T07:37:37;100174.00;;;26.30
13570;BMP180;6856;51.460;7.158;2023-06-19T07:40:12;100191.00;;;26.30
13570;BMP180;6856;51.460;7.158;2023-06-19T07:42:46;100175.00;;;26.30
13570;BMP180;6856;51.460;7.158;2023-06-19T07:45:21;100177.00;;;26.30
13570;BMP180;6856;51.460;7.158;2023-06-19T07:48:04;100178.00;;;26.40
13570;BMP180;6856;51.460;7.158;2023-06-19T07:50:38;100187.00;;;26.40
13570;BMP180;6856;51.460;7.158;2023-06-19T07:53:17;100194.00;;;26.30
13570;BMP180;6856;51.460;7.158;2023-06-19T07:55:52;100186.00;;;26.30
13570;BMP180;6856;51.460;7.158;2023-06-19T07:58:29;100185.00;;;26.10
13570;BMP180;6856;51.460;7.158;2023-06-19T08:01:06;100166.00;;;26.20
13570;BMP180;6856;51.460;7.158;2023-06-19T08:03:41;100187.00;;;26.20
13570;BMP180;6856;51.460;7.158;2023-06-19T08:06:17;100185.00;;;26.20
13570;BMP180;6856;51.460;7.158;2023-06-19T08:08:53;100191.00;;;26.30
13570;BMP180;6856;51.460;7.158;2023-06-19T08:11:29;100173.00;;;26.30
13570;BMP180;6856;51.460;7.158;2023-06-19T08:14:04;100188.00;;;26.30
13570;BMP180;6856;51.460;7.158;2023-06-19T08:16:38;100172.00;;;26.30
13570;BMP180;6856;51.460;7.158;2023-06-19T08:19:12;100168.00;;;26.40
13570;BMP180;6856;51.460;7.158;2023-06-19T08:21:54;100136.00;;;26.40
13570;BMP180;6856;51.460;7.158;2023-06-19T08:24:33;100178.00;;;26.40
13570;BMP180;6856;51.460;7.158;2023-06-19T08:27:10;100176.00;;;26.50
13570;BMP180;6856;51.460;7.158;2023-06-19T08:29:44;100179.00;;;26.60
13570;BMP180;6856;51.460;7.158;2023-06-19T08:32:18;100171.00;;;26.70
13570;BMP180;6856;51.460;7.158;2023-06-19T08:34:53;100167.00;;;26.80
13570;BMP180;6856;51.460;7.158;2023-06-19T08:37:35;100163.00;;;26.80
13570;BMP180;6856;51.460;7.158;2023-06-19T08:40:13;100160.00;;;26.90
13570;BMP180;6856;51.460;7.158;2023-06-19T08:42:47;100192.00;;;26.90
13570;BMP180;6856;51.460;7.158;2023-06-19T08:45:25;100197.00;;;26.90
13570;BMP180;6856;51.460;7.158;2023-06-19T08:48:01;100184.00;;;26.90
13570;BMP180;6856;51.460;7.158;2023-06-19T08:50:38;100167.00;;;26.90
13570;BMP180;6856;51.460;7.158;2023-06-19T08:53:14;100195.00;;;26.90
13570;BMP180;6856;51.460;7.158;2023-06-19T08:55:52;100200.00;;;26.90
13570;BMP180;6856;51.460;7.158;2023-06-19T08:58:27;100195.00;;;26.90
13570;BMP180;6856;51.460;7.158;2023-06-19T09:01:03;100203.00;;;26.90
13570;BMP180;6856;51.460;7.158;2023-06-19T09:03:56;100178.00;;;26.90
13570;BMP180;6856;51.460;7.158;2023-06-19T09:06:33;100187.00;;;27.00
13570;BMP180;6856;51.460;7.158;2023-06-19T09:09:21;100193.00;;;27.00
13570;BMP180;6856;51.460;7.158;2023-06-19T09:12:13;100182.00;;;27.00
13570;BMP180;6856;51.460;7.158;2023-06-19T09:14:51;100191.00;;;27.10
13570;BMP180;6856;51.460;7.158;2023-06-19T09:17:27;100200.00;;;27.10
13570;BMP180;6856;51.460;7.158;2023-06-19T09:20:15;100198.00;;;27.10
13570;BMP180;6856;51.460;7.158;2023-06-19T09:23:27;100202.00;;;27.20
13570;BMP180;6856;51.460;7.158;2023-06-19T09:26:30;100158.00;;;27.20
13570;BMP180;6856;51.460;7.158;2023-06-19T09:29:20;100203.00;;;27.30
13570;BMP180;6856;51.460;7.158;2023-06-19T09:31:59;100191.00;;;27.40
13570;BMP180;6856;51.460;7.158;2023-06-19T09:34:38;100189.00;;;27.60
13570;BMP180;6856;51.460;7.158;2023-06-19T09:37:22;100214.00;;;27.60
13570;BMP180;6856;51.460;7.158;2023-06-19T09:40:07;100210.00;;;27.70
13570;BMP180;6856;51.460;7.158;2023-06-19T09:43:04;100216.00;;;27.80
13570;BMP180;6856;51.460;7.158;2023-06-19T09:46:01;100196.00;;;27.90
13570;BMP180;6856;51.460;7.158;2023-06-19T09:48:43;100193.00;;;28.00
13570;BMP180;6856;51.460;7.158;2023-06-19T09:51:45;100199.00;;;28.00
13570;BMP180;6856;51.460;7.158;2023-06-19T09:54:26;100212.00;;;28.10
13570;BMP180;6856;51.460;7.158;2023-06-19T09:57:08;100211.00;;;28.20
13570;BMP180;6856;51.460;7.158;2023-06-19T09:59:49;100219.00;;;28.30
13570;BMP180;6856;51.460;7.158;2023-06-19T10:02:47;100206.00;;;28.50
13570;BMP180;6856;51.460;7.158;2023-06-19T10:06:15;100212.00;;;28.50
13570;BMP180;6856;51.460;7.158;2023-06-19T10:09:24;100211.00;;;28.60
13570;BMP180;6856;51.460;7.158;2023-06-19T10:12:12;100219.00;;;28.70
13570;BMP180;6856;51.460;7.158;2023-06-19T10:15:15;100224.00;;;28.80
13570;BMP180;6856;51.460;7.158;2023-06-19T10:18:07;100218.00;;;28.80
13570;BMP180;6856;51.460;7.158;2023-06-19T10:20:48;100174.00;;;28.90
13570;BMP180;6856;51.460;7.158;2023-06-19T10:23:36;100229.00;;;29.00
13570;BMP180;6856;51.460;7.158;2023-06-19T10:26:16;100212.00;;;29.00
13570;BMP180;6856;51.460;7.158;2023-06-19T10:28:59;100235.00;;;29.10
13570;BMP180;6856;51.460;7.158;2023-06-19T10:31:35;100218.00;;;29.20
13570;BMP180;6856;51.460;7.158;2023-06-19T10:34:34;100235.00;;;29.30
13570;BMP180;6856;51.460;7.158;2023-06-19T10:37:10;100219.00;;;29.30
13570;BMP180;6856;51.460;7.158;2023-06-19T10:39:46;100227.00;;;29.40
13570;BMP180;6856;51.460;7.158;2023-06-19T10:42:20;100214.00;;;29.50
13570;BMP180;6856;51.460;7.158;2023-06-19T10:45:03;100218.00;;;29.60
13570;BMP180;6856;51.460;7.158;2023-06-19T10:47:39;100217.00;;;29.70
13570;BMP180;6856;51.460;7.158;2023-06-19T10:50:15;100228.00;;;29.70
13570;BMP180;6856;51.460;7.158;2023-06-19T10:52:53;100215.00;;;29.80
13570;BMP180;6856;51.460;7.158;2023-06-19T10:55:35;100200.00;;;29.90
13570;BMP180;6856;51.460;7.158;2023-06-19T10:58:10;100203.00;;;29.90
13570;BMP180;6856;51.460;7.158;2023-06-19T11:00:44;100206.00;;;29.90
13570;BMP180;6856;51.460;7.158;2023-06-19T11:03:19;100210.00;;;30.00
13570;BMP180;6856;51.460;7.158;2023-06-19T11:05:55;100197.00;;;30.00
13570;BMP180;6856;51.460;7.158;2023-06-19T11:08:29;100206.00;;;30.00
13570;BMP180;6856;51.460;7.158;2023-06-19T11:11:20;100219.00;;;30.00
13570;BMP180;6856;51.460;7.158;2023-06-19T11:13:56;100184.00;;;30.10
13570;BMP180;6856;51.460;7.158;2023-06-19T11:16:31;100207.00;;;30.10
13570;BMP180;6856;51.460;7.158;2023-06-19T11:19:07;100206.00;;;30.10
13570;BMP180;6856;51.460;7.158;2023-06-19T11:21:47;100205.00;;;30.10
13570;BMP180;6856;51.460;7.158;2023-06-19T11:24:23;100195.00;;;30.10
13570;BMP180;6856;51.460;7.158;2023-06-19T11:26:57;100206.00;;;30.20
13570;BMP180;6856;51.460;7.158;2023-06-19T11:30:30;100211.00;;;30.30
13570;BMP180;6856;51.460;7.158;2023-06-19T11:33:17;100208.00;;;30.30
13570;BMP180;6856;51.460;7.158;2023-06-19T11:36:01;100203.00;;;30.30
13570;BMP180;6856;51.460;7.158;2023-06-19T11:38:37;100201.00;;;30.30
13570;BMP180;6856;51.460;7.158;2023-06-19T11:41:26;100193.00;;;30.30
13570;BMP180;6856;51.460;7.158;2023-06-19T11:44:05;100203.00;;;30.40
13570;BMP180;6856;51.460;7.158;2023-06-19T11:46:43;100197.00;;;30.50
13570;BMP180;6856;51.460;7.158;2023-06-19T11:49:20;100179.00;;;30.50
13570;BMP180;6856;51.460;7.158;2023-06-19T11:51:57;100195.00;;;30.60
13570;BMP180;6856;51.460;7.158;2023-06-19T11:54:32;100195.00;;;30.70
13570;BMP180;6856;51.460;7.158;2023-06-19T11:57:09;100194.00;;;30.70
13570;BMP180;6856;51.460;7.158;2023-06-19T11:59:52;100208.00;;;30.70
13570;BMP180;6856;51.460;7.158;2023-06-19T12:02:30;100194.00;;;30.70
13570;BMP180;6856;51.460;7.158;2023-06-19T12:05:12;100210.00;;;30.70
13570;BMP180;6856;51.460;7.158;2023-06-19T12:08:13;100188.00;;;30.70
13570;BMP180;6856;51.460;7.158;2023-06-19T12:10:49;100206.00;;;30.80
13570;BMP180;6856;51.460;7.158;2023-06-19T12:13:25;100173.00;;;30.80
13570;BMP180;6856;51.460;7.158;2023-06-19T12:16:02;100196.00;;;30.90
13570;BMP180;6856;51.460;7.158;2023-06-19T12:18:38;100171.00;;;31.00
13570;BMP180;6856;51.460;7.158;2023-06-19T12:21:12;100186.00;;;31.00
13570;BMP180;6856;51.460;7.158;2023-06-19T12:24:09;100162.00;;;31.10
13570;BMP180;6856;51.460;7.158;2023-06-19T12:26:43;100182.00;;;31.20
13570;BMP180;6856;51.460;7.158;2023-06-19T12:29:18;100196.00;;;31.30
13570;BMP180;6856;51.460;7.158;2023-06-19T12:32:00;100205.00;;;31.40
13570;BMP180;6856;51.460;7.158;2023-06-19T12:34:38;100196.00;;;31.40
13570;BMP180;6856;51.460;7.158;2023-06-19T12:37:18;100196.00;;;31.50
13570;BMP180;6856;51.460;7.158;2023-06-19T12:39:57;100197.00;;;31.50
13570;BMP180;6856;51.460;7.158;2023-06-19T12:42:32;100188.00;;;31.50
13570;BMP180;6856;51.460;7.158;2023-06-19T12:45:07;100206.00;;;31.60
13570;BMP180;6856;51.460;7.158;2023-06-19T12:47:41;100195.00;;;31.60
13570;BMP180;6856;51.460;7.158;2023-06-19T12:50:20;100199.00;;;31.70
13570;BMP180;6856;51.460;7.158;2023-06-19T12:52:55;100203.00;;;31.70
13570;BMP180;6856;51.460;7.158;2023-06-19T12:55:37;100193.00;;;31.80
13570;BMP180;6856;51.460;7.158;2023-06-19T12:58:32;100194.00;;;31.80
13570;BMP180;6856;51.460;7.158;2023-06-19T13:01:09;100159.00;;;31.90
13570;BMP180;6856;51.460;7.158;2023-06-19T13:03:44;100190.00;;;31.90
13570;BMP180;6856;51.460;7.158;2023-06-19T13:06:20;100186.00;;;31.90
13570;BMP180;6856;51.460;7.158;2023-06-19T13:08:55;100195.00;;;31.90
13570;BMP180;6856;51.460;7.158;2023-06-19T13:11:29;100209.00;;;32.00
13570;BMP180;6856;51.460;7.158;2023-06-19T13:14:04;100205.00;;;32.00
13570;BMP180;6856;51.460;7.158;2023-06-19T13:16:38;100206.00;;;32.00
13570;BMP180;6856;51.460;7.158;2023-06-19T13:19:18;100177.00;;;32.10
13570;BMP180;6856;51.460;7.158;2023-06-19T13:21:56;100158.00;;;32.10
13570;BMP180;6856;51.460;7.158;2023-06-19T13:24:31;100197.00;;;32.20
13570;BMP180;6856;51.460;7.158;2023-06-19T13:27:06;100152.00;;;32.20
13570;BMP180;6856;51.460;7.158;2023-06-19T13:29:41;100194.00;;;32.30
13570;BMP180;6856;51.460;7.158;2023-06-19T13:32:15;100210.00;;;32.30
13570;BMP180;6856;51.460;7.158;2023-06-19T13:34:50;100198.00;;;32.40
13570;BMP180;6856;51.460;7.158;2023-06-19T13:37:27;100198.00;;;32.40
13570;BMP180;6856;51.460;7.158;2023-06-19T13:40:01;100183.00;;;32.40
13570;BMP180;6856;51.460;7.158;2023-06-19T13:42:39;100182.00;;;32.40
13570;BMP180;6856;51.460;7.158;2023-06-19T13:45:14;100182.00;;;32.40
13570;BMP180;6856;51.460;7.158;2023-06-19T13:47:49;100187.00;;;32.40
13570;BMP180;6856;51.460;7.158;2023-06-19T13:50:23;100159.00;;;32.40
13570;BMP180;6856;51.460;7.158;2023-06-19T13:53:00;100180.00;;;32.40
13570;BMP180;6856;51.460;7.158;2023-06-19T13:55:35;100191.00;;;32.40
13570;BMP180;6856;51.460;7.158;2023-06-19T13:58:18;100168.00;;;32.50
13570;BMP180;6856;51.460;7.158;2023-06-19T14:00:52;100155.00;;;32.50
13570;BMP180;6856;51.460;7.158;2023-06-19T14:03:28;100184.00;;;32.60
13570;BMP180;6856;51.460;7.158;2023-06-19T14:06:06;100185.00;;;32.60
13570;BMP180;6856;51.460;7.158;2023-06-19T14:08:44;100176.00;;;32.70
13570;BMP180;6856;51.460;7.158;2023-06-19T14:11:20;100183.00;;;32.80
13570;BMP180;6856;51.460;7.158;2023-06-19T14:13:55;100178.00;;;32.90
13570;BMP180;6856;51.460;7.158;2023-06-19T14:16:30;100169.00;;;32.90
13570;BMP180;6856;51.460;7.158;2023-06-19T14:19:04;100170.00;;;33.00
13570;BMP180;6856;51.460;7.158;2023-06-19T14:21:37;100175.00;;;33.00
13570;BMP180;6856;51.460;7.158;2023-06-19T14:24:14;100181.00;;;33.10
13570;BMP180;6856;51.460;7.158;2023-06-19T14:26:49;100169.00;;;33.00
13570;BMP180;6856;51.460;7.158;2023-06-19T14:29:25;100171.00;;;33.10
13570;BMP180;6856;51.460;7.158;2023-06-19T14:32:01;100168.00;;;33.10
13570;BMP180;6856;51.460;7.158;2023-06-19T14:34:36;100162.00;;;33.20
13570;BMP180;6856;51.460;7.158;2023-06-19T14:37:11;100170.00;;;33.20
13570;BMP180;6856;51.460;7.158;2023-06-19T14:39:47;100165.00;;;33.20
13570;BMP180;6856;51.460;7.158;2023-06-19T14:42:25;100124.00;;;33.10
13570;BMP180;6856;51.460;7.158;2023-06-19T14:45:04;100167.00;;;33.10
13570;BMP180;6856;51.460;7.158;2023-06-19T14:47:38;100147.00;;;33.10
13570;BMP180;6856;51.460;7.158;2023-06-19T14:50:14;100119.00;;;33.10
13570;BMP180;6856;51.460;7.158;2023-06-19T14:52:49;100154.00;;;33.00
13570;BMP180;6856;51.460;7.158;2023-06-19T14:55:25;100159.00;;;33.10
13570;BMP180;6856;51.460;7.158;2023-06-19T14:57:59;100165.00;;;33.10
13570;BMP180;6856;51.460;7.158;2023-06-19T15:00:36;100163.00;;;33.10
13570;BMP180;6856;51.460;7.158;2023-06-19T15:03:11;100160.00;;;33.10
13570;BMP180;6856;51.460;7.158;2023-06-19T15:05:47;100162.00;;;33.10
13570;BMP180;6856;51.460;7.158;2023-06-19T15:08:20;100157.00;;;33.10
13570;BMP180;6856;51.460;7.158;2023-06-19T15:10:59;100132.00;;;33.10